Time;durP1;ratioP1;P1;durP2;ratioP2;P2;SDS_P1;SDS_P2;PMS_P1;PMS_P2;Temp;Humidity;BMP_temperature;BMP_pressure;BME280_temperature;BME280_humidity;BME280_pressure;Samples;Min_cycle;Max_cycle;Signal;HPM_P1;HPM_P2
2022/09/03 00:00:10;;;;;;;3.03;2.10;;;;;;;;;;5131766;27;20064;-56
2022/09/03 00:02:35;;;;;;;2.53;2.00;;;;;;;;;;5132566;27;20031;-56
2022/09/03 00:05:11;;;;;;;5.15;1.83;;;;;;;;;;5130628;27;20120;-56
2022/09/03 00:07:46;;;;;;;2.70;1.80;;;;;;;;;;5132283;27;20501;-52
2022/09/03 00:10:14;;;;;;;5.10;1.77;;;;;;;;;;5135218;27;20026;-56
2022/09/03 00:12:42;;;;;;;4.38;1.45;;;;;;;;;;5123613;27;20019;-56
2022/09/03 00:15:15;;;;;;;2.92;1.83;;;;;;;;;;5134241;27;20019;-56
2022/09/03 00:17:46;;;;;;;3.13;2.15;;;;;;;;;;5130777;27;20363;-56
2022/09/03 00:20:11;;;;;;;4.50;1.35;;;;;;;;;;5126993;27;20023;-55
2022/09/03 00:22:53;;;;;;;7.60;1.00;;;;;;;;;;5131651;27;20023;-56
2022/09/03 00:25:23;;;;;;;3.40;2.10;;;;;;;;;;5131624;27;20126;-55
2022/09/03 00:27:53;;;;;;;1.52;1.08;;;;;;;;;;5137286;27;20027;-57
2022/09/03 00:30:18;;;;;;;3.65;2.05;;;;;;;;;;5132518;27;20050;-57
2022/09/03 00:32:53;;;;;;;4.53;1.63;;;;;;;;;;5134132;27;20046;-55
2022/09/03 00:35:23;;;;;;;1.45;1.25;;;;;;;;;;5132567;27;20079;-56
2022/09/03 00:37:50;;;;;;;5.30;1.33;;;;;;;;;;5130174;27;20130;-54
2022/09/03 00:40:30;;;;;;;6.90;1.50;;;;;;;;;;5132371;27;20058;-57
2022/09/03 00:43:00;;;;;;;5.15;1.75;;;;;;;;;;5130408;27;20027;-56
2022/09/03 00:45:44;;;;;;;5.97;2.38;;;;;;;;;;5130034;27;20015;-58
2022/09/03 00:48:16;;;;;;;3.22;2.10;;;;;;;;;;5130018;27;20096;-57
2022/09/03 00:51:00;;;;;;;2.58;1.60;;;;;;;;;;5131670;27;20011;-57
2022/09/03 00:53:46;;;;;;;6.40;1.83;;;;;;;;;;5132693;27;20111;-56
2022/09/03 00:56:18;;;;;;;2.20;1.15;;;;;;;;;;5132176;27;20058;-56
2022/09/03 00:59:00;;;;;;;2.85;2.08;;;;;;;;;;5133005;27;20038;-57
2022/09/03 01:01:25;;;;;;;2.30;1.15;;;;;;;;;;5133481;27;20076;-57
2022/09/03 01:03:52;;;;;;;3.58;1.33;;;;;;;;;;5133425;27;20110;-56
2022/09/03 01:06:18;;;;;;;2.38;1.48;;;;;;;;;;5133584;27;20496;-56
2022/09/03 01:08:49;;;;;;;1.38;0.77;;;;;;;;;;5132112;27;20494;-56
2022/09/03 01:11:18;;;;;;;2.28;1.67;;;;;;;;;;5134832;27;20470;-57
2022/09/03 01:14:05;;;;;;;4.10;1.33;;;;;;;;;;5129009;27;20501;-56
2022/09/03 01:16:52;;;;;;;2.10;1.13;;;;;;;;;;5134523;27;20051;-56
2022/09/03 01:19:17;;;;;;;2.70;1.75;;;;;;;;;;5131173;27;20050;-55
2022/09/03 01:21:46;;;;;;;5.13;1.75;;;;;;;;;;5135010;27;20117;-57
2022/09/03 01:24:30;;;;;;;9.07;1.95;;;;;;;;;;5130563;27;20121;-57
2022/09/03 01:27:04;;;;;;;1.67;1.10;;;;;;;;;;5127987;27;20026;-57
2022/09/03 01:29:37;;;;;;;2.42;1.85;;;;;;;;;;5125605;27;20107;-57
2022/09/03 01:32:05;;;;;;;3.42;1.83;;;;;;;;;;5132566;27;20031;-57
2022/09/03 01:34:40;;;;;;;2.65;1.67;;;;;;;;;;5133796;27;20116;-57
2022/09/03 01:37:05;;;;;;;3.67;1.80;;;;;;;;;;5131259;27;20466;-57
2022/09/03 01:39:33;;;;;;;7.13;3.17;;;;;;;;;;5126252;27;20164;-57
2022/09/03 01:42:19;;;;;;;3.65;1.80;;;;;;;;;;5130832;27;20014;-57
2022/09/03 01:44:44;;;;;;;2.65;1.17;;;;;;;;;;5129908;27;20098;-57
2022/09/03 01:47:15;;;;;;;3.17;1.10;;;;;;;;;;5132077;27;20158;-57
2022/09/03 01:49:47;;;;;;;8.88;2.67;;;;;;;;;;5133896;27;20016;-56
2022/09/03 01:52:18;;;;;;;4.28;1.88;;;;;;;;;;5134448;27;20614;-54
2022/09/03 01:55:02;;;;;;;1.35;0.93;;;;;;;;;;5135032;27;20556;-57
2022/09/03 01:57:27;;;;;;;5.60;0.93;;;;;;;;;;5132569;27;20019;-56
2022/09/03 01:59:57;;;;;;;18.08;2.10;;;;;;;;;;5134327;27;20072;-56
2022/09/03 02:02:24;;;;;;;1.75;1.15;;;;;;;;;;5135573;27;20034;-57
2022/09/03 02:04:59;;;;;;;10.48;2.30;;;;;;;;;;5138355;27;20087;-57
2022/09/03 02:07:25;;;;;;;4.38;1.77;;;;;;;;;;5133343;27;20023;-54
2022/09/03 02:09:51;;;;;;;5.05;1.77;;;;;;;;;;5136452;27;20055;-56
2022/09/03 02:12:17;;;;;;;6.70;1.45;;;;;;;;;;5137361;27;20051;-57
2022/09/03 02:14:42;;;;;;;1.83;1.25;;;;;;;;;;5138385;27;20020;-56
2022/09/03 02:17:09;;;;;;;2.13;0.75;;;;;;;;;;5138527;27;20030;-55
2022/09/03 02:19:36;;;;;;;2.10;1.25;;;;;;;;;;5132690;27;20019;-56
2022/09/03 02:22:02;;;;;;;2.63;1.50;;;;;;;;;;5133692;27;20116;-57
2022/09/03 02:24:27;;;;;;;5.85;1.77;;;;;;;;;;5133573;27;20019;-56
2022/09/03 02:26:53;;;;;;;2.28;1.13;;;;;;;;;;5135875;27;20250;-56
2022/09/03 02:29:19;;;;;;;3.05;1.45;;;;;;;;;;5135331;27;20007;-57
2022/09/03 02:31:44;;;;;;;2.83;1.17;;;;;;;;;;5128636;27;20015;-57
2022/09/03 02:34:10;;;;;;;3.92;1.38;;;;;;;;;;5135896;27;20057;-56
2022/09/03 02:36:37;;;;;;;2.78;1.67;;;;;;;;;;5135341;27;20049;-56
2022/09/03 02:39:03;;;;;;;2.63;1.38;;;;;;;;;;5134545;27;20031;-56
2022/09/03 02:41:28;;;;;;;4.20;1.52;;;;;;;;;;5136278;27;20042;-57
2022/09/03 02:43:57;;;;;;;2.22;1.35;;;;;;;;;;5135772;27;20089;-57
2022/09/03 02:46:26;;;;;;;1.98;0.82;;;;;;;;;;5135183;27;20023;-58
2022/09/03 02:48:52;;;;;;;15.73;1.55;;;;;;;;;;5134513;27;20011;-56
2022/09/03 02:51:18;;;;;;;4.05;1.80;;;;;;;;;;5132304;27;20026;-57
2022/09/03 02:53:43;;;;;;;3.08;1.92;;;;;;;;;;5130959;27;20102;-57
2022/09/03 02:56:08;;;;;;;2.03;1.10;;;;;;;;;;5127743;27;20425;-56
2022/09/03 02:58:34;;;;;;;2.67;1.10;;;;;;;;;;5134674;27;20035;-56
2022/09/03 03:00:59;;;;;;;2.47;1.25;;;;;;;;;;5132671;27;20469;-56
2022/09/03 03:03:25;;;;;;;3.15;1.42;;;;;;;;;;5134026;27;20445;-56
2022/09/03 03:05:51;;;;;;;2.35;1.55;;;;;;;;;;5128242;27;20043;-56
2022/09/03 03:08:20;;;;;;;6.05;1.45;;;;;;;;;;5132112;27;20094;-57
2022/09/03 03:10:46;;;;;;;10.73;2.10;;;;;;;;;;5133272;27;20113;-56
2022/09/03 03:13:12;;;;;;;2.78;1.17;;;;;;;;;;5134475;27;20394;-57
2022/09/03 03:15:37;;;;;;;4.03;1.98;;;;;;;;;;5131157;27;20073;-57
2022/09/03 03:18:03;;;;;;;3.65;1.48;;;;;;;;;;5131571;27;20035;-61
2022/09/03 03:20:28;;;;;;;2.22;1.38;;;;;;;;;;5132112;27;20069;-57
2022/09/03 03:22:54;;;;;;;2.15;1.63;;;;;;;;;;5133009;27;20043;-57
2022/09/03 03:25:19;;;;;;;4.15;1.17;;;;;;;;;;5134934;27;20015;-57
2022/09/03 03:27:44;;;;;;;5.65;2.22;;;;;;;;;;5136129;27;20018;-57
2022/09/03 03:30:10;;;;;;;1.48;0.88;;;;;;;;;;5131491;27;20072;-57
2022/09/03 03:32:36;;;;;;;9.32;2.78;;;;;;;;;;5130758;27;20027;-57
2022/09/03 03:35:02;;;;;;;6.07;1.88;;;;;;;;;;5133681;27;20022;-57
2022/09/03 03:37:27;;;;;;;5.10;1.17;;;;;;;;;;5134831;27;20034;-57
2022/09/03 03:39:52;;;;;;;3.03;0.93;;;;;;;;;;5126547;27;20022;-58
2022/09/03 03:42:18;;;;;;;3.15;1.98;;;;;;;;;;5135500;27;20015;-57
2022/09/03 03:44:43;;;;;;;5.82;1.50;;;;;;;;;;5136345;27;20366;-57
2022/09/03 03:47:09;;;;;;;4.47;1.52;;;;;;;;;;5134920;27;20508;-56
2022/09/03 03:49:34;;;;;;;3.75;1.60;;;;;;;;;;5134747;27;20007;-57
2022/09/03 03:52:01;;;;;;;2.72;1.38;;;;;;;;;;5132556;27;20026;-57
2022/09/03 03:54:27;;;;;;;5.35;1.38;;;;;;;;;;5135222;27;20046;-57
2022/09/03 03:56:52;;;;;;;11.60;2.90;;;;;;;;;;5138156;27;20090;-57
2022/09/03 03:59:17;;;;;;;9.25;2.72;;;;;;;;;;5133676;27;20041;-57
2022/09/03 04:01:43;;;;;;;6.28;2.83;;;;;;;;;;5137270;27;20088;-46
2022/09/03 04:04:08;;;;;;;10.68;3.88;;;;;;;;;;5136453;27;20027;-45
2022/09/03 04:06:33;;;;;;;4.78;2.53;;;;;;;;;;5136512;27;20489;-43
2022/09/03 04:08:59;;;;;;;6.47;2.13;;;;;;;;;;5134343;27;20051;-43
2022/09/03 04:11:24;;;;;;;10.27;3.50;;;;;;;;;;5134603;27;20050;-43
2022/09/03 04:13:50;;;;;;;3.78;1.98;;;;;;;;;;5138025;27;20030;-47
2022/09/03 04:16:17;;;;;;;4.63;2.63;;;;;;;;;;5131976;27;20039;-46
2022/09/03 04:18:43;;;;;;;4.68;1.63;;;;;;;;;;5133401;27;20023;-44
2022/09/03 04:21:13;;;;;;;4.70;1.85;;;;;;;;;;5133782;27;20491;-43
2022/09/03 04:23:39;;;;;;;6.53;3.25;;;;;;;;;;5135544;27;20030;-45
2022/09/03 04:26:05;;;;;;;7.25;2.33;;;;;;;;;;5130152;27;20031;-47
2022/09/03 04:28:31;;;;;;;13.85;3.10;;;;;;;;;;5131655;27;20024;-47
2022/09/03 04:31:01;;;;;;;12.38;2.00;;;;;;;;;;5135261;27;20022;-47
2022/09/03 04:33:26;;;;;;;10.35;2.88;;;;;;;;;;5129947;27;20051;-44
2022/09/03 04:35:51;;;;;;;14.20;3.08;;;;;;;;;;5133147;27;20102;-45
2022/09/03 04:38:17;;;;;;;4.82;2.08;;;;;;;;;;5128321;27;20127;-44
2022/09/03 04:40:42;;;;;;;6.88;3.53;;;;;;;;;;5132993;27;20466;-45
2022/09/03 04:43:08;;;;;;;2.92;1.40;;;;;;;;;;5131764;27;20027;-45
2022/09/03 04:45:33;;;;;;;3.83;2.05;;;;;;;;;;5134235;27;20072;-49
2022/09/03 04:47:59;;;;;;;13.02;3.05;;;;;;;;;;5133355;27;20114;-46
2022/09/03 04:50:26;;;;;;;3.47;2.33;;;;;;;;;;5131593;27;20023;-45
2022/09/03 04:52:54;;;;;;;9.15;2.63;;;;;;;;;;5135571;27;20110;-46
2022/09/03 04:55:20;;;;;;;15.57;2.90;;;;;;;;;;5132745;27;20135;-47
2022/09/03 04:57:45;;;;;;;11.85;2.38;;;;;;;;;;5135172;27;20106;-51
2022/09/03 05:00:11;;;;;;;8.43;2.65;;;;;;;;;;5131757;27;20027;-48
2022/09/03 05:02:36;;;;;;;4.50;2.42;;;;;;;;;;5135554;27;20084;-50
2022/09/03 05:05:02;;;;;;;7.30;2.97;;;;;;;;;;5133047;27;20023;-48
2022/09/03 05:07:28;;;;;;;12.93;2.47;;;;;;;;;;5133834;27;20023;-45
2022/09/03 05:09:53;;;;;;;6.55;3.72;;;;;;;;;;5131102;27;20031;-52
2022/09/03 05:12:20;;;;;;;25.60;3.63;;;;;;;;;;5129610;27;20098;-50
2022/09/03 05:14:45;;;;;;;8.82;2.63;;;;;;;;;;5129111;27;20510;-49
2022/09/03 05:17:10;;;;;;;12.93;3.78;;;;;;;;;;5134428;27;20026;-47
2022/09/03 05:19:36;;;;;;;3.65;2.45;;;;;;;;;;5129800;27;20098;-52
2022/09/03 05:22:01;;;;;;;6.85;2.15;;;;;;;;;;5134395;27;20485;-53
2022/09/03 05:24:26;;;;;;;8.50;2.40;;;;;;;;;;5132155;27;20023;-46
2022/09/03 05:26:52;;;;;;;7.78;2.20;;;;;;;;;;5138601;27;20066;-45
2022/09/03 05:29:18;;;;;;;6.70;2.03;;;;;;;;;;5132162;27;20057;-46
2022/09/03 05:31:44;;;;;;;2.13;1.15;;;;;;;;;;5133078;27;20027;-46
2022/09/03 05:34:09;;;;;;;5.53;2.80;;;;;;;;;;5136382;27;20362;-45
2022/09/03 05:36:36;;;;;;;7.45;2.10;;;;;;;;;;5134210;27;20030;-49
2022/09/03 05:39:01;;;;;;;4.97;3.28;;;;;;;;;;5135195;27;20015;-49
2022/09/03 05:41:27;;;;;;;8.98;2.38;;;;;;;;;;5138769;27;20064;-49
2022/09/03 05:43:59;;;;;;;2.80;1.48;;;;;;;;;;5141697;27;20110;-52
2022/09/03 05:46:30;;;;;;;3.92;1.83;;;;;;;;;;5140583;27;20355;-51
2022/09/03 05:48:56;;;;;;;10.82;2.50;;;;;;;;;;5135758;27;20007;-45
2022/09/03 05:51:21;;;;;;;7.18;2.95;;;;;;;;;;5131352;27;20087;-48
2022/09/03 05:53:47;;;;;;;21.77;3.22;;;;;;;;;;5135909;27;20103;-52
2022/09/03 05:56:17;;;;;;;7.43;3.03;;;;;;;;;;5131168;27;20047;-52
2022/09/03 05:58:44;;;;;;;5.80;2.88;;;;;;;;;;5136882;27;20027;-53
2022/09/03 06:01:09;;;;;;;6.72;2.10;;;;;;;;;;5135973;27;20159;-53
2022/09/03 06:03:35;;;;;;;5.85;2.38;;;;;;;;;;5130714;27;20109;-50
2022/09/03 06:06:01;;;;;;;14.02;3.67;;;;;;;;;;5139093;27;20016;-53
2022/09/03 06:08:26;;;;;;;22.90;4.15;;;;;;;;;;5135707;27;20143;-53
2022/09/03 06:10:56;;;;;;;22.05;2.55;;;;;;;;;;5138533;27;20043;-51
2022/09/03 06:13:21;;;;;;;9.20;3.17;;;;;;;;;;5137123;27;20011;-51
2022/09/03 06:15:47;;;;;;;4.05;3.47;;;;;;;;;;5134775;27;20038;-46
2022/09/03 06:18:12;;;;;;;4.15;2.38;;;;;;;;;;5133528;27;20023;-53
2022/09/03 06:20:37;;;;;;;7.38;3.55;;;;;;;;;;5132535;27;20532;-49
2022/09/03 06:23:03;;;;;;;8.50;3.15;;;;;;;;;;5137241;27;20088;-47
2022/09/03 06:25:28;;;;;;;5.38;2.20;;;;;;;;;;5131573;27;20023;-51
2022/09/03 06:27:53;;;;;;;3.47;1.77;;;;;;;;;;5135847;27;20034;-50
2022/09/03 06:30:19;;;;;;;8.60;3.28;;;;;;;;;;5135502;27;20490;-49
2022/09/03 06:32:45;;;;;;;5.63;2.30;;;;;;;;;;5140992;27;20018;-51
2022/09/03 06:35:10;;;;;;;7.90;3.53;;;;;;;;;;5132259;27;20058;-51
2022/09/03 06:37:39;;;;;;;4.35;2.13;;;;;;;;;;5134218;27;20492;-48
2022/09/03 06:40:07;;;;;;;15.30;3.50;;;;;;;;;;5136504;27;20478;-50
2022/09/03 06:42:33;;;;;;;8.27;5.43;;;;;;;;;;5129370;27;20453;-50
2022/09/03 06:44:58;;;;;;;10.68;5.70;;;;;;;;;;5132272;27;20542;-52
2022/09/03 06:47:23;;;;;;;7.05;4.80;;;;;;;;;;5130370;27;20019;-48
2022/09/03 06:49:49;;;;;;;11.38;7.35;;;;;;;;;;5138386;27;20068;-51
2022/09/03 06:52:14;;;;;;;9.57;3.85;;;;;;;;;;5134617;27;20034;-53
2022/09/03 06:54:39;;;;;;;5.40;3.35;;;;;;;;;;5136113;27;20963;-49
2022/09/03 06:57:05;;;;;;;6.03;3.72;;;;;;;;;;5133864;27;20023;-49
2022/09/03 06:59:30;;;;;;;7.43;2.63;;;;;;;;;;5132019;27;20079;-53
2022/09/03 07:01:57;;;;;;;12.38;3.92;;;;;;;;;;5114673;27;20022;-50
2022/09/03 07:04:26;;;;;;;6.07;3.22;;;;;;;;;;5132290;27;20066;-50
2022/09/03 07:06:51;;;;;;;6.60;2.90;;;;;;;;;;5132768;27;20496;-54
2022/09/03 07:09:17;;;;;;;14.75;3.72;;;;;;;;;;5135051;27;20518;-48
2022/09/03 07:11:46;;;;;;;6.03;2.97;;;;;;;;;;5132779;27;20074;-52
2022/09/03 07:14:12;;;;;;;5.43;2.85;;;;;;;;;;5134507;27;20015;-50
2022/09/03 07:16:37;;;;;;;30.42;15.63;;;;;;;;;;5136860;27;20259;-52
2022/09/03 07:19:06;;;;;;;15.88;11.32;;;;;;;;;;5135147;27;20668;-50
2022/09/03 07:21:35;;;;;;;14.38;8.95;;;;;;;;;;5131752;27;20026;-49
2022/09/03 07:24:01;;;;;;;24.98;15.57;;;;;;;;;;5134586;27;20036;-53
2022/09/03 07:26:31;;;;;;;59.60;40.33;;;;;;;;;;5134907;27;20095;-46
2022/09/03 07:28:57;;;;;;;36.25;28.95;;;;;;;;;;5130013;27;20027;-50
2022/09/03 07:31:24;;;;;;;14.13;10.25;;;;;;;;;;5112079;27;20043;-48
2022/09/03 07:33:54;;;;;;;15.20;5.32;;;;;;;;;;5132917;27;20148;-48
2022/09/03 07:36:20;;;;;;;16.00;5.00;;;;;;;;;;5131529;27;20043;-50
2022/09/03 07:38:45;;;;;;;9.77;3.72;;;;;;;;;;5131606;27;20719;-51
2022/09/03 07:41:12;;;;;;;11.13;4.18;;;;;;;;;;5130488;27;20011;-51
2022/09/03 07:43:47;;;;;;;6.53;3.58;;;;;;;;;;5126561;27;20103;-51
2022/09/03 07:46:13;;;;;;;10.95;4.07;;;;;;;;;;5131571;27;20034;-50
2022/09/03 07:48:42;;;;;;;2.88;2.03;;;;;;;;;;5136199;27;20037;-46
2022/09/03 07:51:08;;;;;;;9.07;3.25;;;;;;;;;;5128601;27;20027;-50
2022/09/03 07:53:34;;;;;;;7.15;2.33;;;;;;;;;;5127396;27;20024;-50
2022/09/03 07:56:04;;;;;;;5.35;2.97;;;;;;;;;;5129367;27;20075;-46
2022/09/03 07:58:30;;;;;;;5.13;3.50;;;;;;;;;;5129619;27;20102;-50
2022/09/03 08:00:56;;;;;;;8.95;2.92;;;;;;;;;;5134186;27;20106;-46
2022/09/03 08:03:21;;;;;;;7.40;2.58;;;;;;;;;;5131711;27;20027;-50
2022/09/03 08:05:46;;;;;;;4.05;2.28;;;;;;;;;;5132199;27;20341;-48
2022/09/03 08:08:13;;;;;;;8.93;2.85;;;;;;;;;;5128963;27;20045;-50
2022/09/03 08:10:39;;;;;;;8.32;2.00;;;;;;;;;;5130420;27;20019;-48
2022/09/03 08:13:04;;;;;;;4.45;2.50;;;;;;;;;;5130830;27;20030;-48
2022/09/03 08:15:30;;;;;;;6.95;3.17;;;;;;;;;;5129313;27;20015;-52
2022/09/03 08:17:56;;;;;;;4.32;2.88;;;;;;;;;;5130470;27;20021;-47
2022/09/03 08:20:21;;;;;;;7.03;2.80;;;;;;;;;;5132394;27;20019;-50
2022/09/03 08:22:47;;;;;;;10.10;3.42;;;;;;;;;;5126545;27;20103;-45
2022/09/03 08:25:13;;;;;;;9.70;3.22;;;;;;;;;;5128967;27;20482;-50
2022/09/03 08:27:38;;;;;;;4.78;3.33;;;;;;;;;;5127723;27;20015;-50
2022/09/03 08:30:04;;;;;;;5.88;2.90;;;;;;;;;;5130981;27;20392;-49
2022/09/03 08:32:29;;;;;;;6.38;3.35;;;;;;;;;;5132787;27;20160;-48
2022/09/03 08:34:54;;;;;;;9.23;1.75;;;;;;;;;;5128462;27;20542;-49
2022/09/03 08:37:19;;;;;;;12.70;3.03;;;;;;;;;;5126083;27;20020;-52
2022/09/03 08:39:45;;;;;;;8.75;4.10;;;;;;;;;;5131105;27;20030;-50
2022/09/03 08:42:23;;;;;;;6.22;1.80;;;;;;;;;;5129295;27;20447;-50
2022/09/03 08:44:55;;;;;;;4.43;2.45;;;;;;;;;;5127557;27;20423;-49
2022/09/03 08:47:38;;;;;;;9.45;3.33;;;;;;;;;;5125311;27;20011;-47
2022/09/03 08:50:17;;;;;;;2.63;1.30;;;;;;;;;;5129818;27;20015;-46
2022/09/03 08:53:05;;;;;;;2.58;1.60;;;;;;;;;;5128671;27;20027;-49
2022/09/03 08:55:35;;;;;;;7.22;2.60;;;;;;;;;;5061809;28;20084;-45
2022/09/03 08:58:12;;;;;;;7.87;2.97;;;;;;;;;;5086239;28;20024;-48
2022/09/03 09:00:38;;;;;;;6.70;1.77;;;;;;;;;;5090805;28;20245;-49
2022/09/03 09:03:21;;;;;;;4.03;1.35;;;;;;;;;;5089306;28;20034;-48
2022/09/03 09:05:47;;;;;;;6.65;2.08;;;;;;;;;;5091014;28;20097;-44
2022/09/03 09:08:31;;;;;;;6.93;3.10;;;;;;;;;;5090251;28;20495;-47
2022/09/03 09:11:11;;;;;;;5.97;1.20;;;;;;;;;;5076964;28;20386;-47
2022/09/03 09:14:00;;;;;;;7.68;2.22;;;;;;;;;;5092156;28;20408;-47
2022/09/03 09:16:34;;;;;;;11.98;2.13;;;;;;;;;;5078267;28;20423;-48
2022/09/03 09:19:02;;;;;;;3.03;1.98;;;;;;;;;;5091920;28;20024;-51
2022/09/03 09:21:44;;;;;;;7.28;2.40;;;;;;;;;;5090931;28;20024;-49
2022/09/03 09:24:16;;;;;;;4.28;1.40;;;;;;;;;;5089997;28;20567;-50
2022/09/03 09:26:42;;;;;;;5.90;1.45;;;;;;;;;;5086022;28;20027;-47
2022/09/03 09:29:09;;;;;;;8.50;2.58;;;;;;;;;;5088553;28;20020;-48
2022/09/03 09:31:36;;;;;;;4.32;2.15;;;;;;;;;;5091246;28;20042;-48
2022/09/03 09:34:05;;;;;;;3.05;1.67;;;;;;;;;;5091403;28;20032;-49
2022/09/03 09:36:35;;;;;;;5.60;1.90;;;;;;;;;;5085637;28;20035;-49
2022/09/03 09:39:08;;;;;;;5.32;1.88;;;;;;;;;;5087350;28;20537;-49
2022/09/03 09:41:34;;;;;;;4.18;1.65;;;;;;;;;;5092783;28;20032;-53
2022/09/03 09:44:06;;;;;;;2.67;1.08;;;;;;;;;;5089899;28;20015;-50
2022/09/03 09:46:35;;;;;;;3.45;1.13;;;;;;;;;;5093211;28;20099;-48
2022/09/03 09:49:01;;;;;;;2.75;1.13;;;;;;;;;;5087779;28;20028;-49
2022/09/03 09:51:30;;;;;;;6.68;3.10;;;;;;;;;;5091932;28;20020;-51
2022/09/03 09:54:01;;;;;;;2.42;1.45;;;;;;;;;;5094524;28;20073;-53
2022/09/03 09:56:27;;;;;;;7.20;1.95;;;;;;;;;;5092375;28;20051;-53
2022/09/03 09:59:06;;;;;;;2.40;1.25;;;;;;;;;;5095726;28;20028;-54
2022/09/03 10:01:32;;;;;;;4.10;1.85;;;;;;;;;;5092282;28;20099;-52
2022/09/03 10:04:07;;;;;;;4.60;1.35;;;;;;;;;;5085481;28;20029;-53
2022/09/03 10:09:19;;;;;;;3.42;2.45;;;;;;;;;;5089096;28;20064;-53
2022/09/03 10:11:49;;;;;;;7.32;1.65;;;;;;;;;;5094953;28;20031;-48
2022/09/03 10:14:34;;;;;;;3.25;1.25;;;;;;;;;;5093095;28;20094;-52
2022/09/03 10:17:03;;;;;;;1.98;1.20;;;;;;;;;;5091535;28;20035;-52
2022/09/03 10:22:43;;;;;;;8.98;2.33;;;;;;;;;;5077448;28;20030;-54
2022/09/03 10:25:08;;;;;;;5.32;1.85;;;;;;;;;;5095567;28;20024;-50
2022/09/03 10:27:35;;;;;;;6.88;3.03;;;;;;;;;;5088898;28;20073;-50
2022/09/03 10:30:00;;;;;;;3.05;1.77;;;;;;;;;;5093303;28;20019;-49
2022/09/03 10:32:48;;;;;;;5.38;1.92;;;;;;;;;;5095942;28;20024;-46
2022/09/03 10:35:23;;;;;;;9.82;3.08;;;;;;;;;;5090172;28;20085;-48
2022/09/03 10:37:53;;;;;;;3.38;1.55;;;;;;;;;;5097875;28;20085;-47
2022/09/03 10:40:29;;;;;;;7.00;3.40;;;;;;;;;;5093153;28;20023;-48
2022/09/03 10:43:15;;;;;;;6.00;2.67;;;;;;;;;;5092793;28;20028;-50
2022/09/03 10:46:00;;;;;;;5.15;1.75;;;;;;;;;;5094677;28;20027;-46
2022/09/03 10:48:28;;;;;;;2.25;0.70;;;;;;;;;;5094384;28;20069;-49
2022/09/03 10:50:53;;;;;;;16.08;1.70;;;;;;;;;;5092569;28;20020;-51
2022/09/03 10:53:37;;;;;;;2.25;1.23;;;;;;;;;;5096340;28;20023;-52
2022/09/03 10:56:32;;;;;;;11.82;1.48;;;;;;;;;;5127960;27;20066;-51
2022/09/03 10:58:58;;;;;;;12.65;2.03;;;;;;;;;;5118338;27;20059;-47
2022/09/03 11:01:29;;;;;;;4.37;1.80;;;;;;;;;;5136269;27;20015;-51
2022/09/03 11:04:03;;;;;;;12.32;2.47;;;;;;;;;;5132166;27;20259;-49
2022/09/03 11:06:31;;;;;;;8.70;3.03;;;;;;;;;;5138335;27;20119;-54
2022/09/03 11:09:06;;;;;;;17.27;3.67;;;;;;;;;;5134348;27;20191;-45
2022/09/03 11:11:34;;;;;;;7.35;3.10;;;;;;;;;;5132148;27;20018;-50
2022/09/03 11:14:05;;;;;;;5.60;1.63;;;;;;;;;;5133981;27;20023;-49
2022/09/03 11:16:36;;;;;;;2.92;1.38;;;;;;;;;;5130036;27;20569;-49
2022/09/03 11:19:06;;;;;;;1.90;1.10;;;;;;;;;;5131765;27;20536;-51
2022/09/03 11:21:34;;;;;;;8.05;1.95;;;;;;;;;;5128214;27;20023;-49
2022/09/03 11:24:09;;;;;;;4.10;2.05;;;;;;;;;;5134563;27;20033;-46
2022/09/03 11:26:36;;;;;;;3.13;1.98;;;;;;;;;;5128730;27;20041;-49
2022/09/03 11:29:08;;;;;;;4.38;2.20;;;;;;;;;;5129715;27;20034;-52
2022/09/03 11:31:56;;;;;;;3.72;1.73;;;;;;;;;;5129205;27;20027;-52
2022/09/03 11:34:25;;;;;;;6.65;2.15;;;;;;;;;;5130322;27;20019;-46
2022/09/03 11:36:50;;;;;;;5.75;1.90;;;;;;;;;;5131972;27;20062;-45
2022/09/03 11:39:19;;;;;;;5.63;1.67;;;;;;;;;;5134038;27;20060;-49
2022/09/03 11:41:56;;;;;;;4.55;2.58;;;;;;;;;;5133918;27;20088;-49
2022/09/03 11:44:22;;;;;;;3.25;1.58;;;;;;;;;;5128773;27;20026;-54
2022/09/03 11:46:57;;;;;;;13.02;2.13;;;;;;;;;;5130297;27;20011;-48
2022/09/03 11:49:26;;;;;;;2.38;0.75;;;;;;;;;;5132841;27;20113;-47
2022/09/03 11:52:03;;;;;;;5.90;2.28;;;;;;;;;;5133074;27;20520;-53
2022/09/03 11:54:31;;;;;;;12.60;2.40;;;;;;;;;;5129676;27;20051;-49
2022/09/03 11:57:05;;;;;;;9.88;2.10;;;;;;;;;;5133807;27;20043;-50
2022/09/03 11:59:30;;;;;;;10.18;3.03;;;;;;;;;;5129501;27;20071;-53
2022/09/03 12:01:56;;;;;;;8.80;4.15;;;;;;;;;;5135075;27;20023;-50
2022/09/03 12:04:24;;;;;;;6.20;2.55;;;;;;;;;;5135996;27;20023;-50
2022/09/03 12:07:08;;;;;;;5.25;2.42;;;;;;;;;;5134847;27;20053;-52
2022/09/03 12:09:43;;;;;;;7.97;2.10;;;;;;;;;;5131110;27;20103;-47
2022/09/03 12:12:12;;;;;;;9.48;4.72;;;;;;;;;;5131567;27;20664;-48
2022/09/03 12:14:45;;;;;;;4.00;1.90;;;;;;;;;;5134752;27;20015;-53
2022/09/03 12:17:18;;;;;;;12.48;4.20;;;;;;;;;;5133841;27;20501;-52
2022/09/03 12:20:01;;;;;;;4.95;2.85;;;;;;;;;;5130705;27;20105;-47
2022/09/03 12:22:28;;;;;;;3.72;2.45;;;;;;;;;;5131400;27;20066;-51
2022/09/03 12:24:54;;;;;;;3.25;1.58;;;;;;;;;;5139347;27;20064;-55
2022/09/03 12:27:23;;;;;;;3.05;1.63;;;;;;;;;;5135675;27;20215;-51
2022/09/03 12:29:59;;;;;;;3.47;0.50;;;;;;;;;;5136326;27;20390;-51
2022/09/03 12:32:31;;;;;;;13.98;2.55;;;;;;;;;;5115211;27;20426;-51
2022/09/03 12:34:56;;;;;;;7.15;4.13;;;;;;;;;;5133900;27;20027;-46
2022/09/03 12:37:23;;;;;;;10.18;5.35;;;;;;;;;;5135478;27;20015;-47
2022/09/03 12:39:50;;;;;;;5.00;2.17;;;;;;;;;;5132248;27;20045;-53
2022/09/03 12:42:19;;;;;;;3.85;1.23;;;;;;;;;;5133984;27;20039;-47
2022/09/03 12:44:44;;;;;;;2.70;1.23;;;;;;;;;;5132784;27;20319;-50
2022/09/03 12:47:11;;;;;;;1.60;0.95;;;;;;;;;;5132367;27;20122;-48
2022/09/03 12:49:36;;;;;;;14.20;2.75;;;;;;;;;;5134193;27;20079;-51
2022/09/03 12:52:05;;;;;;;3.42;2.25;;;;;;;;;;5130866;27;20011;-48
2022/09/03 12:54:31;;;;;;;2.03;1.63;;;;;;;;;;5135871;27;20627;-52
2022/09/03 12:56:57;;;;;;;3.88;1.70;;;;;;;;;;5133317;27;20501;-48
2022/09/03 12:59:24;;;;;;;5.28;3.20;;;;;;;;;;5133876;27;20087;-49
2022/09/03 13:01:53;;;;;;;13.80;2.33;;;;;;;;;;5132378;27;20069;-48
2022/09/03 13:04:31;;;;;;;2.58;0.98;;;;;;;;;;5133192;27;20059;-46
2022/09/03 13:07:10;;;;;;;4.65;1.30;;;;;;;;;;5132464;27;20096;-54
2022/09/03 13:09:36;;;;;;;10.30;1.45;;;;;;;;;;5133024;27;20023;-51
2022/09/03 13:12:04;;;;;;;3.55;1.95;;;;;;;;;;5133170;27;20015;-55
2022/09/03 13:14:40;;;;;;;3.63;0.98;;;;;;;;;;5130722;27;20047;-54
2022/09/03 13:17:15;;;;;;;6.93;1.90;;;;;;;;;;5132382;27;20035;-49
2022/09/03 13:19:55;;;;;;;3.53;1.73;;;;;;;;;;5127886;27;20398;-48
2022/09/03 13:22:23;;;;;;;5.13;2.28;;;;;;;;;;5127711;27;20023;-51
2022/09/03 13:25:07;;;;;;;6.28;3.00;;;;;;;;;;5128987;27;20474;-53
2022/09/03 13:27:33;;;;;;;7.57;2.75;;;;;;;;;;5129536;27;20050;-52
2022/09/03 13:30:07;;;;;;;8.35;2.47;;;;;;;;;;5129958;27;20572;-48
2022/09/03 13:32:39;;;;;;;13.32;2.55;;;;;;;;;;5132784;27;20629;-48
2022/09/03 13:35:23;;;;;;;6.72;1.40;;;;;;;;;;5128736;27;20022;-48
2022/09/03 13:37:55;;;;;;;9.90;2.22;;;;;;;;;;5129696;27;20069;-49
2022/09/03 13:40:23;;;;;;;3.75;1.55;;;;;;;;;;5128097;27;20011;-50
2022/09/03 13:42:53;;;;;;;6.70;1.58;;;;;;;;;;5133871;27;20066;-47
2022/09/03 13:45:36;;;;;;;2.50;1.43;;;;;;;;;;5138481;27;20039;-45
2022/09/03 13:51:02;;;;;;;8.32;2.00;;;;;;;;;;5134171;27;20076;-48
2022/09/03 13:53:31;;;;;;;2.00;1.27;;;;;;;;;;5135882;27;20027;-49
2022/09/03 13:56:03;;;;;;;5.43;2.55;;;;;;;;;;5136467;27;20094;-46
2022/09/03 13:58:29;;;;;;;1.67;1.15;;;;;;;;;;5133597;27;20031;-50
2022/09/03 14:00:57;;;;;;;3.73;2.37;;;;;;;;;;5136770;27;20031;-47
2022/09/03 14:03:41;;;;;;;2.70;1.48;;;;;;;;;;5139760;27;20853;-48
2022/09/03 14:06:18;;;;;;;1.83;1.40;;;;;;;;;;5139255;27;20007;-50
2022/09/03 14:08:59;;;;;;;8.73;1.58;;;;;;;;;;5135194;27;20053;-50
2022/09/03 14:11:36;;;;;;;5.35;2.08;;;;;;;;;;5137965;27;20037;-46
2022/09/03 14:14:15;;;;;;;1.83;1.17;;;;;;;;;;5134155;27;20037;-50
2022/09/03 14:16:40;;;;;;;3.65;1.25;;;;;;;;;;5136160;27;20027;-47
2022/09/03 14:19:10;;;;;;;12.75;2.70;;;;;;;;;;5134017;27;20543;-50
2022/09/03 14:21:42;;;;;;;5.25;2.17;;;;;;;;;;5139312;27;20518;-44
2022/09/03 14:24:23;;;;;;;5.30;2.03;;;;;;;;;;5131860;27;20019;-53
2022/09/03 14:26:53;;;;;;;9.43;2.47;;;;;;;;;;5114610;27;20014;-47
2022/09/03 14:29:22;;;;;;;4.60;2.22;;;;;;;;;;5133541;27;20038;-48
2022/09/03 14:31:57;;;;;;;5.40;2.45;;;;;;;;;;5137031;27;20043;-47
2022/09/03 14:34:28;;;;;;;6.53;2.45;;;;;;;;;;5128671;27;20020;-50
2022/09/03 14:36:53;;;;;;;3.85;1.60;;;;;;;;;;5132640;27;20566;-46
2022/09/03 14:39:19;;;;;;;16.20;3.37;;;;;;;;;;5134791;27;20031;-47
2022/09/03 14:41:52;;;;;;;16.60;4.38;;;;;;;;;;5133485;27;20690;-51
2022/09/03 14:44:23;;;;;;;5.20;2.22;;;;;;;;;;5134890;27;20087;-53
2022/09/03 14:46:51;;;;;;;7.75;1.98;;;;;;;;;;5131328;27;20106;-47
2022/09/03 14:49:23;;;;;;;3.97;2.05;;;;;;;;;;5123828;27;20137;-50
2022/09/03 14:51:49;;;;;;;10.38;1.98;;;;;;;;;;5132888;27;20020;-49
2022/09/03 14:54:17;;;;;;;3.08;1.58;;;;;;;;;;5129288;27;20027;-45
2022/09/03 14:56:49;;;;;;;2.65;1.52;;;;;;;;;;5133654;27;20027;-50
2022/09/03 14:59:23;;;;;;;3.10;1.27;;;;;;;;;;5128830;27;20031;-51
2022/09/03 15:02:15;;;;;;;5.30;2.17;;;;;;;;;;5131897;27;20043;-48